createdAt,value
2023-04-11T00:02:12.113Z,12.31
2023-04-11T00:04:45.414Z,12.29
2023-04-11T00:07:19.339Z,12.30
2023-04-11T00:09:53.830Z,12.27
2023-04-11T00:12:26.861Z,12.31
2023-04-11T00:14:59.818Z,12.39
2023-04-11T00:17:32.775Z,12.49
2023-04-11T00:20:08.192Z,12.60
2023-04-11T00:22:42.029Z,12.68
2023-04-11T00:25:16.870Z,13.03
2023-04-11T00:27:49.973Z,13.16
2023-04-11T00:30:22.988Z,13.24
2023-04-11T00:32:56.050Z,13.12
2023-04-11T00:35:29.043Z,13.05
2023-04-11T00:38:02.369Z,13.06
2023-04-11T00:40:36.847Z,13.08
2023-04-11T00:43:09.950Z,13.04
2023-04-11T00:45:43.092Z,12.99
2023-04-11T00:48:17.055Z,12.95
2023-04-11T00:50:49.999Z,12.94
2023-04-11T00:53:23.817Z,12.94
2023-04-11T00:55:58.153Z,12.94
2023-04-11T00:58:32.086Z,13.00
2023-04-11T01:01:09.234Z,13.05
2023-04-11T01:03:42.695Z,13.21
2023-04-11T01:06:18.221Z,13.25
2023-04-11T01:08:51.726Z,13.31
2023-04-11T01:11:26.988Z,13.28
2023-04-11T01:14:00.148Z,13.19
2023-04-11T01:16:33.233Z,13.17
2023-04-11T01:19:08.080Z,13.09
2023-04-11T01:21:41.487Z,13.06
2023-04-11T01:24:16.118Z,13.01
2023-04-11T01:26:49.256Z,12.90
2023-04-11T01:29:22.281Z,12.84
2023-04-11T01:31:55.703Z,12.78
2023-04-11T01:34:29.616Z,12.67
2023-04-11T01:37:02.795Z,12.70
2023-04-11T01:39:37.195Z,12.67
2023-04-11T01:42:11.254Z,12.69
2023-04-11T01:44:44.693Z,12.75
2023-04-11T01:47:17.796Z,12.75
2023-04-11T01:49:50.815Z,12.83
2023-04-11T01:52:23.785Z,12.59
2023-04-11T01:54:58.246Z,12.51
2023-04-11T01:57:31.210Z,12.49
2023-04-11T02:00:05.910Z,12.37
2023-04-11T02:02:39.467Z,12.34
2023-04-11T02:05:12.940Z,12.24
2023-04-11T02:07:45.928Z,12.11
2023-04-11T02:10:20.408Z,12.01
2023-04-11T02:12:53.377Z,11.93
2023-04-11T02:15:26.473Z,11.93
2023-04-11T02:18:00.462Z,11.89
2023-04-11T02:20:33.747Z,11.83
2023-04-11T02:23:06.661Z,11.81
2023-04-11T02:25:41.256Z,11.77
2023-04-11T02:28:14.273Z,11.75
2023-04-11T02:30:47.313Z,11.75
2023-04-11T02:33:20.394Z,11.72
2023-04-11T02:35:53.521Z,11.69
2023-04-11T02:38:26.522Z,11.69
2023-04-11T02:41:01.223Z,11.63
2023-04-11T02:43:34.230Z,11.59
2023-04-11T02:46:12.882Z,11.47
2023-04-11T02:48:46.333Z,11.37
2023-04-11T02:51:19.274Z,11.25
2023-04-11T02:53:52.732Z,11.20
2023-04-11T02:56:27.144Z,11.15
2023-04-11T02:59:00.203Z,11.22
2023-04-11T03:01:33.624Z,11.25
2023-04-11T03:04:07.207Z,11.27
2023-04-11T03:06:40.755Z,11.20
2023-04-11T03:09:13.846Z,10.99
2023-04-11T03:11:48.385Z,10.94
2023-04-11T03:14:21.441Z,10.88
2023-04-11T03:16:54.421Z,10.74
2023-04-11T03:19:27.418Z,10.75
2023-04-11T03:22:02.593Z,10.79
2023-04-11T03:24:35.563Z,10.78
2023-04-11T03:27:10.034Z,10.85
2023-04-11T03:29:42.986Z,10.74
2023-04-11T03:32:16.082Z,10.67
2023-04-11T03:34:49.142Z,10.63
2023-04-11T03:37:22.184Z,10.64
2023-04-11T03:39:55.170Z,10.57
2023-04-11T03:42:29.542Z,10.54
2023-04-11T03:45:02.717Z,10.53
2023-04-11T03:47:35.974Z,10.56
2023-04-11T03:50:10.018Z,10.57
2023-04-11T03:52:43.020Z,10.58
2023-04-11T03:55:16.015Z,10.52
2023-04-11T03:57:50.621Z,10.52
2023-04-11T04:00:23.785Z,10.51
2023-04-11T04:02:57.129Z,10.52
2023-04-11T04:05:30.220Z,10.53
2023-04-11T04:08:03.700Z,10.57
2023-04-11T04:10:36.715Z,10.51
2023-04-11T04:13:11.466Z,10.49
2023-04-11T04:15:44.451Z,10.47
2023-04-11T04:18:17.418Z,10.50
2023-04-11T04:20:50.737Z,10.47
2023-04-11T04:23:23.939Z,10.47
2023-04-11T04:25:58.207Z,10.49
2023-04-11T04:28:32.687Z,10.49
2023-04-11T04:31:08.485Z,10.55
2023-04-11T04:33:42.768Z,10.50
2023-04-11T04:36:17.915Z,10.55
2023-04-11T04:38:50.947Z,10.50
2023-04-11T04:41:24.104Z,10.59
2023-04-11T04:43:58.555Z,10.51
2023-04-11T04:46:36.706Z,10.61
2023-04-11T04:49:10.237Z,10.55
2023-04-11T04:51:43.222Z,10.40
2023-04-11T04:54:19.403Z,10.36
2023-04-11T04:56:52.518Z,10.41
2023-04-11T04:59:26.817Z,10.25
2023-04-11T05:01:59.916Z,10.20
2023-04-11T05:04:34.345Z,10.08
2023-04-11T05:07:07.365Z,10.18
2023-04-11T05:09:40.363Z,10.12
2023-04-11T05:12:13.918Z,10.00
2023-04-11T05:14:48.544Z,10.02
2023-04-11T05:17:22.741Z,9.90
2023-04-11T05:19:56.968Z,9.76
2023-04-11T05:22:29.913Z,9.91
2023-04-11T05:25:03.559Z,9.86
2023-04-11T05:27:36.525Z,9.89
2023-04-11T05:30:12.624Z,9.79
2023-04-11T05:32:46.453Z,9.78
2023-04-11T05:35:19.470Z,9.89
2023-04-11T05:37:52.494Z,9.80
2023-04-11T05:40:25.420Z,9.69
2023-04-11T05:42:58.459Z,9.68
2023-04-11T05:45:32.850Z,9.77
2023-04-11T05:48:07.900Z,9.64
2023-04-11T05:50:41.283Z,9.62
2023-04-11T05:53:14.375Z,9.63
2023-04-11T05:55:47.369Z,9.61
2023-04-11T05:58:20.268Z,9.52
2023-04-11T06:00:54.940Z,9.47
2023-04-11T06:03:28.232Z,9.45
2023-04-11T06:06:01.816Z,9.35
2023-04-11T06:08:35.327Z,9.20
2023-04-11T06:11:08.687Z,9.23
2023-04-11T06:13:41.646Z,9.13
2023-04-11T06:16:16.327Z,9.18
2023-04-11T06:18:49.325Z,9.17
2023-04-11T06:21:22.244Z,9.06
2023-04-11T06:23:55.453Z,9.03
2023-04-11T06:26:28.519Z,9.11
2023-04-11T06:29:04.417Z,9.06
2023-04-11T06:31:38.775Z,8.98
2023-04-11T06:34:12.342Z,8.90
2023-04-11T06:36:48.109Z,8.91
2023-04-11T06:39:21.839Z,8.93
2023-04-11T06:41:54.761Z,8.94
2023-04-11T06:44:27.833Z,8.96
2023-04-11T06:47:03.162Z,9.00
2023-04-11T06:49:36.254Z,8.93
2023-04-11T06:52:09.254Z,8.98
2023-04-11T06:54:42.297Z,9.02
2023-04-11T06:57:15.298Z,9.07
2023-04-11T06:59:48.242Z,9.12
2023-04-11T07:02:24.929Z,9.13
2023-04-11T07:04:58.249Z,9.06
2023-04-11T07:07:31.330Z,9.03
2023-04-11T07:10:04.976Z,9.07
2023-04-11T07:12:37.958Z,9.06
2023-04-11T07:15:12.042Z,9.14
2023-04-11T07:17:50.215Z,9.24
2023-04-11T07:20:24.414Z,9.41
2023-04-11T07:22:57.351Z,9.55
2023-04-11T07:25:33.375Z,9.63
2023-04-11T07:28:08.430Z,9.66
2023-04-11T07:30:42.433Z,9.59
2023-04-11T07:33:16.740Z,9.68
2023-04-11T07:35:49.775Z,9.63
2023-04-11T07:38:29.306Z,9.60
2023-04-11T07:41:04.018Z,9.52
2023-04-11T07:43:37.327Z,9.42
2023-04-11T07:46:10.350Z,9.42
2023-04-11T07:48:44.646Z,9.56
2023-04-11T07:51:18.938Z,9.68
2023-04-11T07:53:51.882Z,9.67
2023-04-11T07:56:24.857Z,9.67
2023-04-11T07:58:58.562Z,9.82
2023-04-11T08:01:32.023Z,9.83
2023-04-11T08:04:06.523Z,9.85
2023-04-11T08:06:39.529Z,9.95
2023-04-11T08:09:12.449Z,10.06
2023-04-11T08:11:45.571Z,10.06
2023-04-11T08:14:18.518Z,10.15
2023-04-11T08:16:53.932Z,10.13
2023-04-11T08:19:28.369Z,10.11
2023-04-11T08:22:01.322Z,10.20
2023-04-11T08:24:34.272Z,10.27
2023-04-11T08:27:07.222Z,10.38
2023-04-11T08:29:40.252Z,10.55
2023-04-11T08:32:13.512Z,10.59
2023-04-11T08:34:47.802Z,10.59
2023-04-11T08:37:20.751Z,10.89
2023-04-11T08:39:53.727Z,11.03
2023-04-11T08:42:28.501Z,11.12
2023-04-11T08:45:04.051Z,11.24
2023-04-11T08:47:37.774Z,11.31
2023-04-11T08:50:12.895Z,11.52
2023-04-11T08:52:47.836Z,11.46
2023-04-11T08:55:20.996Z,11.43
2023-04-11T08:57:55.101Z,11.44
2023-04-11T09:00:29.086Z,11.52
2023-04-11T09:03:04.428Z,11.57
2023-04-11T09:05:40.776Z,11.60
2023-04-11T09:08:14.737Z,11.67
2023-04-11T09:10:48.273Z,11.79
2023-04-11T09:13:24.293Z,11.78
2023-04-11T09:16:07.107Z,11.79
2023-04-11T09:18:42.672Z,12.08
2023-04-11T09:21:19.595Z,12.27
2023-04-11T09:23:52.487Z,12.34
2023-04-11T09:26:30.666Z,12.52
2023-04-11T09:29:03.586Z,12.71
2023-04-11T09:31:45.545Z,12.95
2023-04-11T09:34:27.492Z,13.02
2023-04-11T09:37:02.133Z,13.28
2023-04-11T09:39:35.167Z,13.45
2023-04-11T09:42:26.104Z,13.79
2023-04-11T09:44:59.017Z,13.83
2023-04-11T09:47:34.005Z,13.79
2023-04-11T09:50:08.476Z,13.98
2023-04-11T09:52:45.048Z,13.80
2023-04-11T09:55:21.953Z,13.61
2023-04-11T09:57:55.742Z,13.91
2023-04-11T10:00:30.189Z,14.13
2023-04-11T10:03:03.512Z,14.32
2023-04-11T10:05:36.689Z,14.21
2023-04-11T10:08:20.052Z,14.11
2023-04-11T10:10:54.113Z,14.04
2023-04-11T10:13:41.194Z,13.85
2023-04-11T10:16:16.155Z,13.65
2023-04-11T10:19:27.150Z,13.72
2023-04-11T10:22:00.141Z,13.46
2023-04-11T10:24:34.489Z,13.44
2023-04-11T10:27:07.775Z,13.47
2023-04-11T10:29:52.438Z,13.67
2023-04-11T10:32:26.209Z,13.73
2023-04-11T10:35:24.694Z,14.03
2023-04-11T10:37:57.688Z,14.31
2023-04-11T10:40:31.979Z,14.57
2023-04-11T10:43:20.821Z,14.74
2023-04-11T10:46:19.356Z,14.65
2023-04-11T10:49:01.549Z,14.50
2023-04-11T10:51:35.719Z,14.50
2023-04-11T10:54:26.297Z,14.42
2023-04-11T10:57:00.676Z,13.88
2023-04-11T11:00:09.022Z,13.81
2023-04-11T11:02:42.926Z,14.17
2023-04-11T11:05:22.291Z,14.15
2023-04-11T11:07:55.502Z,14.46
2023-04-11T11:10:42.991Z,14.50
2023-04-11T11:13:18.151Z,14.66
2023-04-11T11:15:51.588Z,14.71
2023-04-11T11:18:24.645Z,14.66
2023-04-11T11:20:57.681Z,14.78
2023-04-11T11:23:30.796Z,14.68
2023-04-11T11:26:03.904Z,14.66
2023-04-11T11:28:48.889Z,14.83
2023-04-11T11:31:22.183Z,14.98
2023-04-11T11:33:58.307Z,15.03
2023-04-11T11:36:41.311Z,15.10
2023-04-11T11:39:15.550Z,15.12
2023-04-11T11:41:49.056Z,14.96
2023-04-11T11:44:29.061Z,14.89
2023-04-11T11:47:03.299Z,15.00
2023-04-11T11:49:50.320Z,15.00
2023-04-11T11:52:33.692Z,15.01
2023-04-11T11:55:11.426Z,14.97
2023-04-11T11:57:46.266Z,15.05
2023-04-11T12:00:27.782Z,15.01
2023-04-11T12:03:03.999Z,14.87
2023-04-11T12:05:37.850Z,15.02
2023-04-11T12:08:11.090Z,15.17
2023-04-11T12:10:47.310Z,15.23
2023-04-11T12:13:22.604Z,15.23
2023-04-11T12:15:59.017Z,15.20
2023-04-11T12:18:31.998Z,15.18
2023-04-11T12:21:05.573Z,15.21
2023-04-11T12:23:38.544Z,15.17
2023-04-11T12:26:11.508Z,15.04
2023-04-11T12:28:44.461Z,15.18
2023-04-11T12:31:20.053Z,15.22
2023-04-11T12:33:53.175Z,15.26
2023-04-11T12:36:27.598Z,15.25
2023-04-11T12:39:00.628Z,15.23
2023-04-11T12:41:33.598Z,15.13
2023-04-11T12:44:06.780Z,15.00
2023-04-11T12:46:41.139Z,15.06
2023-04-11T12:49:14.148Z,15.26
2023-04-11T12:51:47.104Z,15.25
2023-04-11T12:54:20.033Z,15.23
2023-04-11T12:56:52.979Z,15.20
2023-04-11T12:59:26.721Z,15.10
2023-04-11T13:02:01.229Z,15.16
2023-04-11T13:04:34.676Z,15.25
2023-04-11T13:07:07.774Z,15.33
2023-04-11T13:09:40.880Z,15.28
2023-04-11T13:12:13.843Z,15.41
2023-04-11T13:14:46.897Z,15.34
2023-04-11T13:17:22.224Z,15.59
2023-04-11T13:19:55.543Z,15.47
2023-04-11T13:22:28.594Z,15.37
2023-04-11T13:25:01.684Z,15.29
2023-04-11T13:27:34.781Z,15.22
2023-04-11T13:30:10.505Z,15.10
2023-04-11T13:32:44.895Z,15.11
2023-04-11T13:35:17.956Z,15.14
2023-04-11T13:37:51.882Z,15.10
2023-04-11T13:40:24.919Z,15.08
2023-04-11T13:42:57.944Z,15.23
2023-04-11T13:45:31.115Z,15.25
2023-04-11T13:48:06.016Z,15.43
2023-04-11T13:50:39.400Z,15.48
2023-04-11T13:53:12.431Z,15.49
2023-04-11T13:55:48.317Z,15.45
2023-04-11T13:58:21.570Z,15.48
2023-04-11T14:00:55.371Z,15.57
2023-04-11T14:03:33.600Z,15.58
2023-04-11T14:06:08.951Z,15.62
2023-04-11T14:08:42.056Z,15.57
2023-04-11T14:11:15.036Z,15.59
2023-04-11T14:13:48.088Z,15.84
2023-04-11T14:16:21.121Z,15.94
2023-04-11T14:18:55.745Z,15.98
2023-04-11T14:21:29.035Z,15.37
2023-04-11T14:24:02.286Z,15.14
2023-04-11T14:26:35.556Z,15.16
2023-04-11T14:29:09.163Z,15.18
2023-04-11T14:31:42.247Z,15.01
2023-04-11T14:34:18.540Z,15.07
2023-04-11T14:36:51.833Z,15.25
2023-04-11T14:39:24.862Z,15.37
2023-04-11T14:41:57.857Z,15.32
2023-04-11T14:44:30.876Z,15.23
2023-04-11T14:47:03.976Z,15.11
2023-04-11T14:49:38.261Z,15.18
2023-04-11T14:52:11.395Z,15.41
2023-04-11T14:54:45.824Z,15.35
2023-04-11T14:57:18.831Z,15.22
2023-04-11T14:59:51.821Z,15.08
2023-04-11T15:02:24.982Z,15.17
2023-04-11T15:04:59.422Z,15.13
2023-04-11T15:07:32.502Z,14.96
2023-04-11T15:10:07.189Z,15.01
2023-04-11T15:12:40.343Z,14.90
2023-04-11T15:15:14.083Z,15.01
2023-04-11T15:17:48.912Z,15.01
2023-04-11T15:20:24.307Z,15.09
2023-04-11T15:22:57.257Z,15.14
2023-04-11T15:25:30.428Z,15.26
2023-04-11T15:28:04.983Z,15.29
2023-04-11T15:30:48.240Z,15.09
2023-04-11T15:33:24.041Z,14.94
2023-04-11T15:36:00.302Z,14.85
2023-04-11T15:38:33.713Z,14.82
2023-04-11T15:41:07.588Z,14.78
2023-04-11T15:43:41.075Z,14.67
2023-04-11T15:46:14.109Z,14.62
2023-04-11T15:48:47.091Z,14.68
2023-04-11T15:51:21.530Z,14.74
2023-04-11T15:53:54.924Z,14.69
2023-04-11T15:56:28.544Z,14.67
2023-04-11T15:59:01.642Z,14.59
2023-04-11T16:01:36.294Z,14.47
2023-04-11T16:04:11.329Z,14.36
2023-04-11T16:06:45.686Z,14.23
2023-04-11T16:09:18.880Z,14.12
2023-04-11T16:11:51.845Z,14.14
2023-04-11T16:14:25.150Z,14.16
2023-04-11T16:16:58.480Z,14.11
2023-04-11T16:19:31.418Z,14.03
2023-04-11T16:22:06.236Z,13.81
2023-04-11T16:24:39.317Z,13.72
2023-04-11T16:27:12.367Z,13.89
2023-04-11T16:29:45.835Z,13.78
2023-04-11T16:32:18.873Z,13.62
2023-04-11T16:34:54.794Z,13.55
2023-04-11T16:37:29.165Z,13.61
2023-04-11T16:40:02.325Z,13.61
2023-04-11T16:42:35.438Z,13.55
2023-04-11T16:45:10.494Z,13.67
2023-04-11T16:47:43.603Z,13.66
2023-04-11T16:50:17.851Z,13.83
2023-04-11T16:52:52.370Z,13.62
2023-04-11T16:55:25.452Z,13.52
2023-04-11T16:57:58.456Z,13.49
2023-04-11T17:00:31.523Z,13.44
2023-04-11T17:03:05.819Z,13.27
2023-04-11T17:05:39.118Z,13.21
2023-04-11T17:08:14.642Z,13.16
2023-04-11T17:10:47.679Z,12.97
2023-04-11T17:13:20.818Z,12.89
2023-04-11T17:15:54.361Z,12.90
2023-04-11T17:18:27.371Z,12.86
2023-04-11T17:21:00.971Z,12.72
2023-04-11T17:23:42.373Z,12.74
2023-04-11T17:26:17.015Z,12.75
2023-04-11T17:28:50.984Z,12.62
2023-04-11T17:31:27.540Z,12.49
2023-04-11T17:34:00.730Z,12.43
2023-04-11T17:36:33.779Z,12.37
2023-04-11T17:39:08.211Z,12.30
2023-04-11T17:41:41.280Z,12.23
2023-04-11T17:44:14.655Z,12.13
2023-04-11T17:46:47.740Z,12.09
2023-04-11T17:49:21.581Z,11.98
2023-04-11T17:51:59.100Z,11.92
2023-04-11T17:54:34.022Z,11.87
2023-04-11T17:57:07.620Z,11.74
2023-04-11T17:59:40.648Z,11.69
2023-04-11T18:02:13.904Z,11.62
2023-04-11T18:04:46.950Z,11.57
2023-04-11T18:07:24.348Z,11.49
2023-04-11T18:09:58.793Z,11.41
2023-04-11T18:12:32.725Z,11.35
2023-04-11T18:15:07.225Z,11.28
2023-04-11T18:17:42.320Z,11.21
2023-04-11T18:20:16.243Z,11.17
2023-04-11T18:22:51.515Z,11.02
2023-04-11T18:25:25.984Z,10.89
2023-04-11T18:27:58.988Z,10.80
2023-04-11T18:30:32.032Z,10.69
2023-04-11T18:33:05.314Z,10.60
2023-04-11T18:35:38.365Z,10.47
2023-04-11T18:38:11.498Z,10.27
2023-04-11T18:40:46.218Z,10.24
2023-04-11T18:43:19.521Z,10.20
2023-04-11T18:45:52.635Z,10.18
2023-04-11T18:48:25.852Z,10.08
2023-04-11T18:51:00.558Z,10.07
2023-04-11T18:53:34.878Z,9.95
2023-04-11T18:56:09.850Z,9.88
2023-04-11T18:58:45.792Z,9.80
2023-04-11T19:01:19.526Z,9.70
2023-04-11T19:03:55.106Z,9.57
2023-04-11T19:06:28.295Z,9.54
2023-04-11T19:09:02.244Z,9.44
2023-04-11T19:11:38.411Z,9.41
2023-04-11T19:14:11.505Z,9.45
2023-04-11T19:16:46.354Z,9.29
2023-04-11T19:19:19.509Z,9.23
2023-04-11T19:21:52.651Z,9.15
2023-04-11T19:24:25.642Z,9.07
2023-04-11T19:27:00.252Z,9.13
2023-04-11T19:29:33.237Z,9.17
2023-04-11T19:32:06.672Z,9.19
2023-04-11T19:34:39.764Z,9.21
2023-04-11T19:37:13.917Z,9.18
2023-04-11T19:39:46.929Z,9.02
2023-04-11T19:42:22.612Z,9.03
2023-04-11T19:44:55.734Z,9.01
2023-04-11T19:47:28.806Z,8.90
2023-04-11T19:50:02.473Z,8.85
2023-04-11T19:52:35.699Z,8.79
2023-04-11T19:55:10.355Z,8.69
2023-04-11T19:57:44.752Z,8.63
2023-04-11T20:00:19.370Z,8.71
2023-04-11T20:02:52.983Z,8.80
2023-04-11T20:05:27.905Z,8.89
2023-04-11T20:08:00.985Z,8.74
2023-04-11T20:10:34.169Z,8.56
2023-04-11T20:13:08.706Z,8.49
2023-04-11T20:15:41.758Z,8.41
2023-04-11T20:18:16.079Z,8.29
2023-04-11T20:20:49.113Z,8.28
2023-04-11T20:23:22.177Z,8.30
2023-04-11T20:25:55.254Z,8.31
2023-04-11T20:28:30.407Z,8.37
2023-04-11T20:31:04.655Z,8.34
2023-04-11T20:33:37.830Z,8.31
2023-04-11T20:36:11.128Z,8.28
2023-04-11T20:38:44.254Z,8.25
2023-04-11T20:41:19.105Z,8.27
2023-04-11T20:43:53.657Z,8.31
2023-04-11T20:46:30.000Z,8.26
2023-04-11T20:49:03.856Z,8.10
2023-04-11T20:51:37.499Z,7.95
2023-04-11T20:54:10.912Z,7.98
2023-04-11T20:56:44.200Z,7.87
2023-04-11T20:59:18.614Z,7.86
2023-04-11T21:01:53.594Z,7.85
2023-04-11T21:04:28.208Z,7.83
2023-04-11T21:07:01.725Z,7.76
2023-04-11T21:09:34.783Z,7.77
2023-04-11T21:12:08.399Z,7.73
2023-04-11T21:14:43.066Z,7.63
2023-04-11T21:17:16.106Z,7.75
2023-04-11T21:19:49.092Z,7.61
2023-04-11T21:22:22.141Z,7.61
2023-04-11T21:24:55.169Z,7.59
2023-04-11T21:27:28.291Z,7.65
2023-04-11T21:30:02.700Z,7.61
2023-04-11T21:32:35.860Z,7.57
2023-04-11T21:35:11.677Z,7.54
2023-04-11T21:37:46.001Z,7.50
2023-04-11T21:40:20.828Z,7.51
2023-04-11T21:42:55.532Z,7.48
2023-04-11T21:45:29.985Z,7.60
2023-04-11T21:48:03.057Z,7.55
2023-04-11T21:50:36.910Z,7.58
2023-04-11T21:53:09.925Z,7.72
2023-04-11T21:55:47.021Z,7.72
2023-04-11T21:58:29.212Z,7.67
2023-04-11T22:01:04.805Z,7.78
2023-04-11T22:03:41.313Z,7.82
2023-04-11T22:06:14.514Z,7.73
2023-04-11T22:08:50.463Z,7.74
2023-04-11T22:11:23.649Z,7.61
2023-04-11T22:13:58.299Z,7.63
2023-04-11T22:16:33.706Z,7.57
2023-04-11T22:19:07.089Z,7.51
2023-04-11T22:21:40.684Z,7.46
2023-04-11T22:24:13.786Z,7.44
2023-04-11T22:26:49.008Z,7.42
2023-04-11T22:29:22.280Z,7.42
2023-04-11T22:31:57.238Z,7.28
2023-04-11T22:34:30.554Z,7.36
2023-04-11T22:37:03.657Z,7.25
2023-04-11T22:39:37.347Z,7.21
2023-04-11T22:42:11.564Z,7.24
2023-04-11T22:44:44.618Z,7.16
2023-04-11T22:47:21.755Z,7.19
2023-04-11T22:49:54.870Z,7.25
2023-04-11T22:52:30.138Z,7.31
2023-04-11T22:55:04.678Z,7.41
2023-04-11T22:57:38.065Z,7.36
2023-04-11T23:00:16.209Z,7.43
2023-04-11T23:02:51.133Z,7.56
2023-04-11T23:05:24.787Z,7.69
2023-04-11T23:07:57.952Z,7.50
2023-04-11T23:10:31.021Z,7.65
2023-04-11T23:13:04.035Z,7.66
2023-04-11T23:15:37.333Z,7.66
2023-04-11T23:18:12.534Z,7.66
2023-04-11T23:20:47.539Z,7.93
2023-04-11T23:23:20.765Z,7.72
2023-04-11T23:25:54.237Z,7.68
2023-04-11T23:28:27.382Z,7.62
2023-04-11T23:31:00.540Z,7.62
2023-04-11T23:33:35.343Z,7.62
2023-04-11T23:36:09.699Z,7.63
2023-04-11T23:38:42.759Z,7.51
2023-04-11T23:41:15.778Z,7.56
2023-04-11T23:43:48.866Z,7.55
2023-04-11T23:46:22.008Z,7.48
2023-04-11T23:48:56.584Z,7.50
2023-04-11T23:51:29.614Z,7.60
2023-04-11T23:54:02.624Z,7.64
2023-04-11T23:56:35.710Z,7.66
2023-04-11T23:59:08.781Z,7.44
